sensor_id;sensor_type;location;lat;lon;timestamp;P1;durP1;ratioP1;P2;durP2;ratioP2
11531;SDS011;5822;51.000;5.874;2023-11-22T00:00:56;21.77;;;20.57;;
11531;SDS011;5822;51.000;5.874;2023-11-22T00:03:22;21.98;;;20.77;;
11531;SDS011;5822;51.000;5.874;2023-11-22T00:05:49;21.75;;;20.55;;
11531;SDS011;5822;51.000;5.874;2023-11-22T00:08:16;22.07;;;20.87;;
11531;SDS011;5822;51.000;5.874;2023-11-22T00:10:42;22.33;;;21.02;;
11531;SDS011;5822;51.000;5.874;2023-11-22T00:13:09;22.88;;;21.58;;
11531;SDS011;5822;51.000;5.874;2023-11-22T00:15:36;23.47;;;22.13;;
11531;SDS011;5822;51.000;5.874;2023-11-22T00:18:02;22.60;;;21.30;;
11531;SDS011;5822;51.000;5.874;2023-11-22T00:20:28;21.85;;;20.65;;
11531;SDS011;5822;51.000;5.874;2023-11-22T00:22:55;21.77;;;20.58;;
11531;SDS011;5822;51.000;5.874;2023-11-22T00:25:21;22.33;;;21.13;;
11531;SDS011;5822;51.000;5.874;2023-11-22T00:27:47;20.83;;;19.73;;
11531;SDS011;5822;51.000;5.874;2023-11-22T00:30:13;21.40;;;20.20;;
11531;SDS011;5822;51.000;5.874;2023-11-22T00:32:39;21.67;;;20.48;;
11531;SDS011;5822;51.000;5.874;2023-11-22T00:35:07;22.27;;;21.05;;
11531;SDS011;5822;51.000;5.874;2023-11-22T00:37:33;21.60;;;20.40;;
11531;SDS011;5822;51.000;5.874;2023-11-22T00:40:00;21.80;;;20.60;;
11531;SDS011;5822;51.000;5.874;2023-11-22T00:42:31;22.35;;;21.15;;
11531;SDS011;5822;51.000;5.874;2023-11-22T00:44:57;22.33;;;21.03;;
11531;SDS011;5822;51.000;5.874;2023-11-22T00:47:22;22.37;;;21.17;;
11531;SDS011;5822;51.000;5.874;2023-11-22T00:49:48;21.50;;;20.30;;
11531;SDS011;5822;51.000;5.874;2023-11-22T00:52:13;23.17;;;21.87;;
11531;SDS011;5822;51.000;5.874;2023-11-22T00:54:39;22.17;;;20.97;;
11531;SDS011;5822;51.000;5.874;2023-11-22T00:57:05;24.20;;;22.80;;
11531;SDS011;5822;51.000;5.874;2023-11-22T00:59:32;23.03;;;21.73;;
11531;SDS011;5822;51.000;5.874;2023-11-22T01:01:57;23.10;;;21.80;;
11531;SDS011;5822;51.000;5.874;2023-11-22T01:04:23;23.80;;;22.40;;
11531;SDS011;5822;51.000;5.874;2023-11-22T01:06:49;23.95;;;22.55;;
11531;SDS011;5822;51.000;5.874;2023-11-22T01:09:14;24.13;;;22.73;;
11531;SDS011;5822;51.000;5.874;2023-11-22T01:11:40;23.50;;;22.20;;
11531;SDS011;5822;51.000;5.874;2023-11-22T01:14:06;23.10;;;21.80;;
11531;SDS011;5822;51.000;5.874;2023-11-22T01:16:31;24.30;;;22.90;;
11531;SDS011;5822;51.000;5.874;2023-11-22T01:18:57;23.57;;;22.17;;
11531;SDS011;5822;51.000;5.874;2023-11-22T01:21:22;22.45;;;21.15;;
11531;SDS011;5822;51.000;5.874;2023-11-22T01:23:48;21.83;;;20.60;;
11531;SDS011;5822;51.000;5.874;2023-11-22T01:26:14;22.58;;;21.30;;
11531;SDS011;5822;51.000;5.874;2023-11-22T01:28:41;24.10;;;22.70;;
11531;SDS011;5822;51.000;5.874;2023-11-22T01:31:10;23.20;;;21.88;;
11531;SDS011;5822;51.000;5.874;2023-11-22T01:33:37;23.47;;;22.07;;
11531;SDS011;5822;51.000;5.874;2023-11-22T01:36:03;23.90;;;22.50;;
11531;SDS011;5822;51.000;5.874;2023-11-22T01:38:29;24.00;;;22.60;;
11531;SDS011;5822;51.000;5.874;2023-11-22T01:40:54;24.20;;;22.80;;
11531;SDS011;5822;51.000;5.874;2023-11-22T01:43:20;23.90;;;22.50;;
11531;SDS011;5822;51.000;5.874;2023-11-22T01:45:48;23.35;;;22.02;;
11531;SDS011;5822;51.000;5.874;2023-11-22T01:48:14;23.48;;;22.17;;
11531;SDS011;5822;51.000;5.874;2023-11-22T01:50:41;23.60;;;22.20;;
11531;SDS011;5822;51.000;5.874;2023-11-22T01:53:09;23.50;;;22.13;;
11531;SDS011;5822;51.000;5.874;2023-11-22T01:55:36;22.60;;;21.30;;
11531;SDS011;5822;51.000;5.874;2023-11-22T01:58:03;23.77;;;22.38;;
11531;SDS011;5822;51.000;5.874;2023-11-22T02:00:30;24.23;;;22.83;;
11531;SDS011;5822;51.000;5.874;2023-11-22T02:03:01;24.40;;;23.00;;
11531;SDS011;5822;51.000;5.874;2023-11-22T02:05:27;25.30;;;23.80;;
11531;SDS011;5822;51.000;5.874;2023-11-22T02:07:53;23.87;;;22.47;;
11531;SDS011;5822;51.000;5.874;2023-11-22T02:10:19;23.90;;;22.50;;
11531;SDS011;5822;51.000;5.874;2023-11-22T02:12:46;23.15;;;21.85;;
11531;SDS011;5822;51.000;5.874;2023-11-22T02:15:11;23.38;;;22.08;;
11531;SDS011;5822;51.000;5.874;2023-11-22T02:17:37;23.30;;;22.00;;
11531;SDS011;5822;51.000;5.874;2023-11-22T02:20:03;23.63;;;22.25;;
11531;SDS011;5822;51.000;5.874;2023-11-22T02:22:33;22.95;;;21.65;;
11531;SDS011;5822;51.000;5.874;2023-11-22T02:24:59;23.38;;;22.08;;
11531;SDS011;5822;51.000;5.874;2023-11-22T02:27:25;24.40;;;23.00;;
11531;SDS011;5822;51.000;5.874;2023-11-22T02:29:50;25.50;;;23.98;;
11531;SDS011;5822;51.000;5.874;2023-11-22T02:32:16;24.40;;;23.00;;
11531;SDS011;5822;51.000;5.874;2023-11-22T02:34:43;24.42;;;23.02;;
11531;SDS011;5822;51.000;5.874;2023-11-22T02:37:09;24.33;;;22.93;;
11531;SDS011;5822;51.000;5.874;2023-11-22T02:40:17;24.40;;;23.00;;
11531;SDS011;5822;51.000;5.874;2023-11-22T02:42:26;25.30;;;23.80;;
11531;SDS011;5822;51.000;5.874;2023-11-22T02:44:51;24.40;;;23.00;;
11531;SDS011;5822;51.000;5.874;2023-11-22T02:47:17;24.42;;;22.92;;
11531;SDS011;5822;51.000;5.874;2023-11-22T02:49:43;26.17;;;24.58;;
11531;SDS011;5822;51.000;5.874;2023-11-22T02:52:09;26.77;;;25.17;;
11531;SDS011;5822;51.000;5.874;2023-11-22T02:54:36;26.80;;;25.20;;
11531;SDS011;5822;51.000;5.874;2023-11-22T02:57:02;26.17;;;24.57;;
11531;SDS011;5822;51.000;5.874;2023-11-22T02:59:28;25.53;;;24.03;;
11531;SDS011;5822;51.000;5.874;2023-11-22T03:01:54;24.80;;;23.30;;
11531;SDS011;5822;51.000;5.874;2023-11-22T03:04:19;26.90;;;25.20;;
11531;SDS011;5822;51.000;5.874;2023-11-22T03:06:45;25.43;;;23.93;;
11531;SDS011;5822;51.000;5.874;2023-11-22T03:09:10;24.23;;;22.83;;
11531;SDS011;5822;51.000;5.874;2023-11-22T03:11:38;25.80;;;24.20;;
11531;SDS011;5822;51.000;5.874;2023-11-22T03:14:04;26.97;;;25.27;;
11531;SDS011;5822;51.000;5.874;2023-11-22T03:16:30;26.02;;;24.42;;
11531;SDS011;5822;51.000;5.874;2023-11-22T03:18:55;26.17;;;24.58;;
11531;SDS011;5822;51.000;5.874;2023-11-22T03:21:23;26.70;;;25.10;;
11531;SDS011;5822;51.000;5.874;2023-11-22T03:23:51;25.38;;;23.88;;
11531;SDS011;5822;51.000;5.874;2023-11-22T03:26:16;27.47;;;25.77;;
11531;SDS011;5822;51.000;5.874;2023-11-22T03:28:42;27.37;;;25.67;;
11531;SDS011;5822;51.000;5.874;2023-11-22T03:31:08;27.67;;;25.95;;
11531;SDS011;5822;51.000;5.874;2023-11-22T03:33:35;28.03;;;26.33;;
11531;SDS011;5822;51.000;5.874;2023-11-22T03:36:00;29.77;;;27.87;;
11531;SDS011;5822;51.000;5.874;2023-11-22T03:38:27;29.65;;;27.75;;
11531;SDS011;5822;51.000;5.874;2023-11-22T03:40:53;29.80;;;27.88;;
11531;SDS011;5822;51.000;5.874;2023-11-22T03:43:18;31.55;;;29.45;;
11531;SDS011;5822;51.000;5.874;2023-11-22T03:45:44;29.25;;;27.45;;
11531;SDS011;5822;51.000;5.874;2023-11-22T03:48:10;30.10;;;28.10;;
11531;SDS011;5822;51.000;5.874;2023-11-22T03:50:36;30.77;;;28.77;;
11531;SDS011;5822;51.000;5.874;2023-11-22T03:53:01;30.95;;;28.85;;
11531;SDS011;5822;51.000;5.874;2023-11-22T03:55:27;32.60;;;30.30;;
11531;SDS011;5822;51.000;5.874;2023-11-22T03:57:53;33.90;;;31.50;;
11531;SDS011;5822;51.000;5.874;2023-11-22T04:00:18;35.85;;;33.30;;
11531;SDS011;5822;51.000;5.874;2023-11-22T04:02:45;35.08;;;32.58;;
11531;SDS011;5822;51.000;5.874;2023-11-22T04:05:10;34.93;;;32.50;;
11531;SDS011;5822;51.000;5.874;2023-11-22T04:07:39;35.35;;;32.85;;
11531;SDS011;5822;51.000;5.874;2023-11-22T04:10:04;35.13;;;32.63;;
11531;SDS011;5822;51.000;5.874;2023-11-22T04:12:31;35.95;;;33.38;;
11531;SDS011;5822;51.000;5.874;2023-11-22T04:14:57;35.25;;;32.65;;
11531;SDS011;5822;51.000;5.874;2023-11-22T04:17:23;34.17;;;31.77;;
11531;SDS011;5822;51.000;5.874;2023-11-22T04:19:48;32.90;;;30.60;;
11531;SDS011;5822;51.000;5.874;2023-11-22T04:22:14;33.03;;;30.63;;
11531;SDS011;5822;51.000;5.874;2023-11-22T04:24:40;33.90;;;31.50;;
11531;SDS011;5822;51.000;5.874;2023-11-22T04:27:05;36.93;;;34.20;;
11531;SDS011;5822;51.000;5.874;2023-11-22T04:29:31;36.80;;;34.00;;
11531;SDS011;5822;51.000;5.874;2023-11-22T04:31:56;37.83;;;34.95;;
11531;SDS011;5822;51.000;5.874;2023-11-22T04:34:22;37.30;;;34.40;;
11531;SDS011;5822;51.000;5.874;2023-11-22T04:36:48;38.70;;;35.67;;
11531;SDS011;5822;51.000;5.874;2023-11-22T04:39:13;36.80;;;34.08;;
11531;SDS011;5822;51.000;5.874;2023-11-22T04:41:39;38.78;;;35.88;;
11531;SDS011;5822;51.000;5.874;2023-11-22T04:44:05;37.22;;;34.42;;
11531;SDS011;5822;51.000;5.874;2023-11-22T04:46:30;38.25;;;35.35;;
11531;SDS011;5822;51.000;5.874;2023-11-22T04:48:56;37.88;;;35.05;;
11531;SDS011;5822;51.000;5.874;2023-11-22T04:51:22;36.20;;;33.60;;
11531;SDS011;5822;51.000;5.874;2023-11-22T04:53:49;34.80;;;32.30;;
11531;SDS011;5822;51.000;5.874;2023-11-22T04:56:16;36.03;;;33.33;;
11531;SDS011;5822;51.000;5.874;2023-11-22T04:58:42;34.40;;;31.90;;
11531;SDS011;5822;51.000;5.874;2023-11-22T05:01:07;35.58;;;33.03;;
11531;SDS011;5822;51.000;5.874;2023-11-22T05:03:34;34.88;;;32.35;;
11531;SDS011;5822;51.000;5.874;2023-11-22T05:06:03;35.88;;;33.30;;
11531;SDS011;5822;51.000;5.874;2023-11-22T05:08:29;35.77;;;33.17;;
11531;SDS011;5822;51.000;5.874;2023-11-22T05:10:55;34.53;;;32.08;;
11531;SDS011;5822;51.000;5.874;2023-11-22T05:13:21;33.35;;;31.05;;
11531;SDS011;5822;51.000;5.874;2023-11-22T05:15:46;36.05;;;33.53;;
11531;SDS011;5822;51.000;5.874;2023-11-22T05:18:12;33.60;;;31.30;;
11531;SDS011;5822;51.000;5.874;2023-11-22T05:20:38;34.55;;;32.15;;
11531;SDS011;5822;51.000;5.874;2023-11-22T05:23:03;34.55;;;32.15;;
11531;SDS011;5822;51.000;5.874;2023-11-22T05:25:29;34.03;;;31.65;;
11531;SDS011;5822;51.000;5.874;2023-11-22T05:27:55;31.42;;;29.33;;
11531;SDS011;5822;51.000;5.874;2023-11-22T05:30:21;30.85;;;28.75;;
11531;SDS011;5822;51.000;5.874;2023-11-22T05:32:47;32.50;;;30.30;;
11531;SDS011;5822;51.000;5.874;2023-11-22T05:35:13;36.55;;;33.95;;
11531;SDS011;5822;51.000;5.874;2023-11-22T05:37:39;35.57;;;33.17;;
11531;SDS011;5822;51.000;5.874;2023-11-22T05:40:05;36.80;;;34.20;;
11531;SDS011;5822;51.000;5.874;2023-11-22T05:42:34;35.42;;;33.03;;
11531;SDS011;5822;51.000;5.874;2023-11-22T05:45:01;32.97;;;30.70;;
11531;SDS011;5822;51.000;5.874;2023-11-22T05:47:26;32.72;;;30.52;;
11531;SDS011;5822;51.000;5.874;2023-11-22T05:49:52;34.58;;;32.08;;
11531;SDS011;5822;51.000;5.874;2023-11-22T05:52:18;33.97;;;31.63;;
11531;SDS011;5822;51.000;5.874;2023-11-22T05:54:45;33.10;;;30.80;;
11531;SDS011;5822;51.000;5.874;2023-11-22T05:57:12;33.95;;;31.65;;
11531;SDS011;5822;51.000;5.874;2023-11-22T05:59:37;34.10;;;31.80;;
11531;SDS011;5822;51.000;5.874;2023-11-22T06:02:03;35.93;;;33.33;;
11531;SDS011;5822;51.000;5.874;2023-11-22T06:04:28;37.47;;;34.77;;
11531;SDS011;5822;51.000;5.874;2023-11-22T06:06:55;36.70;;;34.10;;
11531;SDS011;5822;51.000;5.874;2023-11-22T06:09:21;35.50;;;32.90;;
11531;SDS011;5822;51.000;5.874;2023-11-22T06:11:48;36.53;;;33.92;;
11531;SDS011;5822;51.000;5.874;2023-11-22T06:14:13;38.37;;;35.67;;
11531;SDS011;5822;51.000;5.874;2023-11-22T06:16:39;36.80;;;34.20;;
11531;SDS011;5822;51.000;5.874;2023-11-22T06:19:05;37.53;;;34.83;;
11531;SDS011;5822;51.000;5.874;2023-11-22T06:21:30;37.40;;;34.70;;
11531;SDS011;5822;51.000;5.874;2023-11-22T06:23:56;37.57;;;34.87;;
11531;SDS011;5822;51.000;5.874;2023-11-22T06:26:23;36.20;;;33.60;;
11531;SDS011;5822;51.000;5.874;2023-11-22T06:28:49;37.10;;;34.42;;
11531;SDS011;5822;51.000;5.874;2023-11-22T06:31:15;37.88;;;35.17;;
11531;SDS011;5822;51.000;5.874;2023-11-22T06:33:40;35.67;;;33.17;;
11531;SDS011;5822;51.000;5.874;2023-11-22T06:36:06;37.33;;;34.60;;
11531;SDS011;5822;51.000;5.874;2023-11-22T06:38:34;37.70;;;35.00;;
11531;SDS011;5822;51.000;5.874;2023-11-22T06:41:00;35.50;;;33.00;;
11531;SDS011;5822;51.000;5.874;2023-11-22T06:43:26;37.33;;;34.63;;
11531;SDS011;5822;51.000;5.874;2023-11-22T06:45:51;36.33;;;33.73;;
11531;SDS011;5822;51.000;5.874;2023-11-22T06:48:17;36.97;;;34.33;;
11531;SDS011;5822;51.000;5.874;2023-11-22T06:50:43;35.75;;;33.25;;
11531;SDS011;5822;51.000;5.874;2023-11-22T06:53:10;36.38;;;33.78;;
11531;SDS011;5822;51.000;5.874;2023-11-22T06:55:36;37.40;;;34.70;;
11531;SDS011;5822;51.000;5.874;2023-11-22T06:58:03;40.08;;;37.17;;
11531;SDS011;5822;51.000;5.874;2023-11-22T07:00:30;39.17;;;36.38;;
11531;SDS011;5822;51.000;5.874;2023-11-22T07:02:55;41.15;;;38.05;;
11531;SDS011;5822;51.000;5.874;2023-11-22T07:05:21;40.72;;;37.72;;
11531;SDS011;5822;51.000;5.874;2023-11-22T07:07:47;41.25;;;38.35;;
11531;SDS011;5822;51.000;5.874;2023-11-22T07:10:14;40.40;;;37.50;;
11531;SDS011;5822;51.000;5.874;2023-11-22T07:12:40;40.67;;;37.97;;
11531;SDS011;5822;51.000;5.874;2023-11-22T07:15:08;44.20;;;41.30;;
11531;SDS011;5822;51.000;5.874;2023-11-22T07:17:34;47.10;;;43.97;;
11531;SDS011;5822;51.000;5.874;2023-11-22T07:20:00;52.30;;;48.97;;
11531;SDS011;5822;51.000;5.874;2023-11-22T07:22:26;53.50;;;50.00;;
11531;SDS011;5822;51.000;5.874;2023-11-22T07:24:51;42.95;;;39.95;;
11531;SDS011;5822;51.000;5.874;2023-11-22T07:27:19;42.80;;;39.70;;
11531;SDS011;5822;51.000;5.874;2023-11-22T07:29:45;40.38;;;37.47;;
11531;SDS011;5822;51.000;5.874;2023-11-22T07:32:11;39.03;;;36.22;;
11531;SDS011;5822;51.000;5.874;2023-11-22T07:34:38;39.67;;;36.78;;
11531;SDS011;5822;51.000;5.874;2023-11-22T07:37:05;38.30;;;35.60;;
11531;SDS011;5822;51.000;5.874;2023-11-22T07:39:37;37.13;;;34.47;;
11531;SDS011;5822;51.000;5.874;2023-11-22T07:42:03;37.75;;;35.05;;
11531;SDS011;5822;51.000;5.874;2023-11-22T07:44:32;37.33;;;34.67;;
11531;SDS011;5822;51.000;5.874;2023-11-22T07:47:00;39.22;;;36.53;;
11531;SDS011;5822;51.000;5.874;2023-11-22T07:49:27;40.47;;;37.58;;
11531;SDS011;5822;51.000;5.874;2023-11-22T07:51:54;38.90;;;36.20;;
11531;SDS011;5822;51.000;5.874;2023-11-22T07:54:21;34.85;;;32.45;;
11531;SDS011;5822;51.000;5.874;2023-11-22T07:56:50;33.22;;;31.00;;
11531;SDS011;5822;51.000;5.874;2023-11-22T07:59:19;33.53;;;31.23;;
11531;SDS011;5822;51.000;5.874;2023-11-22T08:01:45;35.27;;;32.87;;
11531;SDS011;5822;51.000;5.874;2023-11-22T08:04:12;34.83;;;32.42;;
11531;SDS011;5822;51.000;5.874;2023-11-22T08:06:39;35.90;;;33.40;;
11531;SDS011;5822;51.000;5.874;2023-11-22T08:09:04;34.10;;;31.80;;
11531;SDS011;5822;51.000;5.874;2023-11-22T08:11:30;33.28;;;30.98;;
11531;SDS011;5822;51.000;5.874;2023-11-22T08:13:56;34.40;;;32.10;;
11531;SDS011;5822;51.000;5.874;2023-11-22T08:16:24;39.97;;;37.10;;
11531;SDS011;5822;51.000;5.874;2023-11-22T08:18:52;37.95;;;35.33;;
11531;SDS011;5822;51.000;5.874;2023-11-22T08:21:18;35.08;;;32.67;;
11531;SDS011;5822;51.000;5.874;2023-11-22T08:23:45;34.88;;;32.47;;
11531;SDS011;5822;51.000;5.874;2023-11-22T08:26:14;36.30;;;33.83;;
11531;SDS011;5822;51.000;5.874;2023-11-22T08:28:40;34.53;;;32.33;;
11531;SDS011;5822;51.000;5.874;2023-11-22T08:31:06;35.22;;;32.88;;
11531;SDS011;5822;51.000;5.874;2023-11-22T08:33:38;34.35;;;32.05;;
11531;SDS011;5822;51.000;5.874;2023-11-22T08:36:07;35.97;;;33.58;;
11531;SDS011;5822;51.000;5.874;2023-11-22T08:38:36;36.03;;;33.53;;
11531;SDS011;5822;51.000;5.874;2023-11-22T08:41:06;38.08;;;35.42;;
11531;SDS011;5822;51.000;5.874;2023-11-22T08:43:32;34.42;;;32.13;;
11531;SDS011;5822;51.000;5.874;2023-11-22T08:45:58;33.80;;;31.58;;
11531;SDS011;5822;51.000;5.874;2023-11-22T08:48:25;33.78;;;31.50;;
11531;SDS011;5822;51.000;5.874;2023-11-22T08:50:51;32.00;;;29.90;;
11531;SDS011;5822;51.000;5.874;2023-11-22T08:53:20;33.50;;;31.33;;
11531;SDS011;5822;51.000;5.874;2023-11-22T08:55:47;30.90;;;28.90;;
11531;SDS011;5822;51.000;5.874;2023-11-22T08:58:12;32.83;;;30.63;;
11531;SDS011;5822;51.000;5.874;2023-11-22T09:00:39;33.63;;;31.33;;
11531;SDS011;5822;51.000;5.874;2023-11-22T09:03:06;34.00;;;31.77;;
11531;SDS011;5822;51.000;5.874;2023-11-22T09:05:38;35.70;;;33.40;;
11531;SDS011;5822;51.000;5.874;2023-11-22T09:08:04;35.03;;;32.73;;
11531;SDS011;5822;51.000;5.874;2023-11-22T09:10:30;33.38;;;31.17;;
11531;SDS011;5822;51.000;5.874;2023-11-22T09:12:56;32.97;;;30.80;;
11531;SDS011;5822;51.000;5.874;2023-11-22T09:15:24;32.25;;;30.17;;
11531;SDS011;5822;51.000;5.874;2023-11-22T09:17:51;32.10;;;30.05;;
11531;SDS011;5822;51.000;5.874;2023-11-22T09:20:19;32.67;;;30.65;;
11531;SDS011;5822;51.000;5.874;2023-11-22T09:22:45;30.65;;;28.75;;
11531;SDS011;5822;51.000;5.874;2023-11-22T09:27:41;31.37;;;29.37;;
11531;SDS011;5822;51.000;5.874;2023-11-22T09:30:15;30.45;;;28.48;;
11531;SDS011;5822;51.000;5.874;2023-11-22T09:32:57;29.88;;;27.98;;
11531;SDS011;5822;51.000;5.874;2023-11-22T09:35:23;29.57;;;27.67;;
11531;SDS011;5822;51.000;5.874;2023-11-22T09:37:50;30.95;;;28.95;;
11531;SDS011;5822;51.000;5.874;2023-11-22T09:40:16;31.30;;;29.30;;
11531;SDS011;5822;51.000;5.874;2023-11-22T09:42:43;30.85;;;28.85;;
11531;SDS011;5822;51.000;5.874;2023-11-22T09:45:15;32.05;;;29.95;;
11531;SDS011;5822;51.000;5.874;2023-11-22T09:47:43;33.75;;;31.55;;
11531;SDS011;5822;51.000;5.874;2023-11-22T09:50:10;32.13;;;30.02;;
11531;SDS011;5822;51.000;5.874;2023-11-22T09:52:43;32.60;;;30.50;;
11531;SDS011;5822;51.000;5.874;2023-11-22T09:55:15;31.40;;;29.40;;
11531;SDS011;5822;51.000;5.874;2023-11-22T09:57:42;32.33;;;30.25;;
11531;SDS011;5822;51.000;5.874;2023-11-22T10:00:10;31.37;;;29.37;;
11531;SDS011;5822;51.000;5.874;2023-11-22T10:02:39;31.88;;;29.88;;
11531;SDS011;5822;51.000;5.874;2023-11-22T10:05:06;30.85;;;28.85;;
11531;SDS011;5822;51.000;5.874;2023-11-22T10:07:33;29.33;;;27.43;;
11531;SDS011;5822;51.000;5.874;2023-11-22T10:10:01;27.10;;;25.50;;
11531;SDS011;5822;51.000;5.874;2023-11-22T10:12:30;26.48;;;24.88;;
11531;SDS011;5822;51.000;5.874;2023-11-22T10:15:10;27.80;;;26.05;;
11531;SDS011;5822;51.000;5.874;2023-11-22T10:17:41;27.90;;;26.20;;
11531;SDS011;5822;51.000;5.874;2023-11-22T10:20:44;29.13;;;27.42;;
11531;SDS011;5822;51.000;5.874;2023-11-22T10:23:12;28.23;;;26.52;;
11531;SDS011;5822;51.000;5.874;2023-11-22T10:25:49;28.55;;;26.73;;
11531;SDS011;5822;51.000;5.874;2023-11-22T10:28:20;28.25;;;26.55;;
11531;SDS011;5822;51.000;5.874;2023-11-22T10:30:47;28.73;;;26.93;;
11531;SDS011;5822;51.000;5.874;2023-11-22T10:33:15;28.42;;;26.73;;
11531;SDS011;5822;51.000;5.874;2023-11-22T10:35:44;29.13;;;27.33;;
11531;SDS011;5822;51.000;5.874;2023-11-22T10:38:14;28.75;;;26.95;;
11531;SDS011;5822;51.000;5.874;2023-11-22T10:40:40;27.45;;;25.75;;
11531;SDS011;5822;51.000;5.874;2023-11-22T10:43:09;26.98;;;25.38;;
11531;SDS011;5822;51.000;5.874;2023-11-22T10:45:37;27.77;;;26.08;;
11531;SDS011;5822;51.000;5.874;2023-11-22T10:48:03;26.70;;;25.10;;
11531;SDS011;5822;51.000;5.874;2023-11-22T10:50:30;28.15;;;26.45;;
11531;SDS011;5822;51.000;5.874;2023-11-22T10:52:57;27.45;;;25.85;;
11531;SDS011;5822;51.000;5.874;2023-11-22T10:55:28;28.45;;;26.75;;
11531;SDS011;5822;51.000;5.874;2023-11-22T10:57:59;29.45;;;27.75;;
11531;SDS011;5822;51.000;5.874;2023-11-22T11:00:27;29.33;;;27.63;;
11531;SDS011;5822;51.000;5.874;2023-11-22T11:02:58;28.50;;;26.80;;
11531;SDS011;5822;51.000;5.874;2023-11-22T11:05:30;28.35;;;26.65;;
11531;SDS011;5822;51.000;5.874;2023-11-22T11:08:00;29.02;;;27.33;;
11531;SDS011;5822;51.000;5.874;2023-11-22T11:10:38;28.17;;;26.50;;
11531;SDS011;5822;51.000;5.874;2023-11-22T11:13:08;29.00;;;27.40;;
11531;SDS011;5822;51.000;5.874;2023-11-22T11:15:38;29.02;;;27.33;;
11531;SDS011;5822;51.000;5.874;2023-11-22T11:18:05;28.52;;;26.83;;
11531;SDS011;5822;51.000;5.874;2023-11-22T11:20:45;29.45;;;27.65;;
11531;SDS011;5822;51.000;5.874;2023-11-22T11:23:18;28.88;;;27.17;;
11531;SDS011;5822;51.000;5.874;2023-11-22T11:26:27;28.65;;;26.95;;
11531;SDS011;5822;51.000;5.874;2023-11-22T11:28:44;28.95;;;27.25;;
11531;SDS011;5822;51.000;5.874;2023-11-22T11:31:12;28.85;;;27.15;;
11531;SDS011;5822;51.000;5.874;2023-11-22T11:36:27;26.73;;;25.13;;
11531;SDS011;5822;51.000;5.874;2023-11-22T11:38:56;25.70;;;24.20;;
11531;SDS011;5822;51.000;5.874;2023-11-22T11:41:24;26.65;;;25.15;;
11531;SDS011;5822;51.000;5.874;2023-11-22T11:43:55;29.00;;;27.30;;
11531;SDS011;5822;51.000;5.874;2023-11-22T11:46:22;28.98;;;27.27;;
11531;SDS011;5822;51.000;5.874;2023-11-22T11:48:49;27.63;;;26.03;;
11531;SDS011;5822;51.000;5.874;2023-11-22T11:51:16;26.65;;;25.05;;
11531;SDS011;5822;51.000;5.874;2023-11-22T11:53:44;27.15;;;25.55;;
11531;SDS011;5822;51.000;5.874;2023-11-22T11:56:10;27.50;;;25.90;;
11531;SDS011;5822;51.000;5.874;2023-11-22T11:58:36;26.65;;;25.15;;
11531;SDS011;5822;51.000;5.874;2023-11-22T12:01:03;26.90;;;25.30;;
11531;SDS011;5822;51.000;5.874;2023-11-22T12:03:29;27.20;;;25.60;;
11531;SDS011;5822;51.000;5.874;2023-11-22T12:05:55;26.77;;;25.17;;
11531;SDS011;5822;51.000;5.874;2023-11-22T12:08:21;26.40;;;24.90;;
11531;SDS011;5822;51.000;5.874;2023-11-22T12:10:47;28.45;;;26.73;;
11531;SDS011;5822;51.000;5.874;2023-11-22T12:13:22;27.70;;;26.00;;
11531;SDS011;5822;51.000;5.874;2023-11-22T12:15:47;28.30;;;26.60;;
11531;SDS011;5822;51.000;5.874;2023-11-22T12:18:13;26.80;;;25.20;;
11531;SDS011;5822;51.000;5.874;2023-11-22T12:20:39;28.15;;;26.35;;
11531;SDS011;5822;51.000;5.874;2023-11-22T12:23:05;26.30;;;24.75;;
11531;SDS011;5822;51.000;5.874;2023-11-22T12:25:31;26.35;;;24.75;;
11531;SDS011;5822;51.000;5.874;2023-11-22T12:27:57;26.85;;;25.25;;
11531;SDS011;5822;51.000;5.874;2023-11-22T12:30:30;27.53;;;25.83;;
11531;SDS011;5822;51.000;5.874;2023-11-22T12:33:01;26.77;;;25.17;;
11531;SDS011;5822;51.000;5.874;2023-11-22T12:35:32;28.23;;;26.52;;
11531;SDS011;5822;51.000;5.874;2023-11-22T12:38:02;26.60;;;25.02;;
11531;SDS011;5822;51.000;5.874;2023-11-22T12:40:30;26.00;;;24.50;;
11531;SDS011;5822;51.000;5.874;2023-11-22T12:42:57;25.83;;;24.30;;
11531;SDS011;5822;51.000;5.874;2023-11-22T12:45:24;26.52;;;24.92;;
11531;SDS011;5822;51.000;5.874;2023-11-22T12:47:53;25.92;;;24.33;;
11531;SDS011;5822;51.000;5.874;2023-11-22T12:50:29;25.30;;;23.80;;
11531;SDS011;5822;51.000;5.874;2023-11-22T12:53:13;25.20;;;23.70;;
11531;SDS011;5822;51.000;5.874;2023-11-22T12:55:43;26.65;;;25.05;;
11531;SDS011;5822;51.000;5.874;2023-11-22T12:58:10;25.63;;;24.13;;
11531;SDS011;5822;51.000;5.874;2023-11-22T13:00:37;25.90;;;24.37;;
11531;SDS011;5822;51.000;5.874;2023-11-22T13:03:06;26.10;;;24.50;;
11531;SDS011;5822;51.000;5.874;2023-11-22T13:05:33;26.83;;;25.23;;
11531;SDS011;5822;51.000;5.874;2023-11-22T13:07:59;26.90;;;25.30;;
11531;SDS011;5822;51.000;5.874;2023-11-22T13:10:24;26.17;;;24.67;;
11531;SDS011;5822;51.000;5.874;2023-11-22T13:12:51;26.13;;;24.52;;
11531;SDS011;5822;51.000;5.874;2023-11-22T13:15:18;25.58;;;24.08;;
11531;SDS011;5822;51.000;5.874;2023-11-22T13:17:46;23.70;;;22.30;;
11531;SDS011;5822;51.000;5.874;2023-11-22T13:20:11;23.90;;;22.50;;
11531;SDS011;5822;51.000;5.874;2023-11-22T13:22:43;24.08;;;22.67;;
11531;SDS011;5822;51.000;5.874;2023-11-22T13:25:12;25.63;;;24.02;;
11531;SDS011;5822;51.000;5.874;2023-11-22T13:27:44;25.42;;;23.90;;
11531;SDS011;5822;51.000;5.874;2023-11-22T13:30:12;25.42;;;23.92;;
11531;SDS011;5822;51.000;5.874;2023-11-22T13:32:39;27.05;;;25.45;;
11531;SDS011;5822;51.000;5.874;2023-11-22T13:35:06;30.90;;;28.90;;
11531;SDS011;5822;51.000;5.874;2023-11-22T13:37:39;31.03;;;29.03;;
11531;SDS011;5822;51.000;5.874;2023-11-22T13:40:07;34.90;;;32.50;;
11531;SDS011;5822;51.000;5.874;2023-11-22T13:42:37;35.83;;;33.42;;
11531;SDS011;5822;51.000;5.874;2023-11-22T13:45:02;34.60;;;32.30;;
11531;SDS011;5822;51.000;5.874;2023-11-22T13:47:29;32.55;;;30.45;;
11531;SDS011;5822;51.000;5.874;2023-11-22T13:49:54;35.10;;;32.70;;
11531;SDS011;5822;51.000;5.874;2023-11-22T13:52:20;34.77;;;32.47;;
11531;SDS011;5822;51.000;5.874;2023-11-22T13:54:46;34.97;;;32.67;;
11531;SDS011;5822;51.000;5.874;2023-11-22T13:57:11;33.23;;;31.07;;
11531;SDS011;5822;51.000;5.874;2023-11-22T13:59:39;31.17;;;29.17;;
11531;SDS011;5822;51.000;5.874;2023-11-22T14:02:05;31.00;;;29.00;;
11531;SDS011;5822;51.000;5.874;2023-11-22T14:04:31;30.83;;;28.83;;
11531;SDS011;5822;51.000;5.874;2023-11-22T14:06:56;30.63;;;28.63;;
11531;SDS011;5822;51.000;5.874;2023-11-22T14:09:22;32.03;;;29.93;;
11531;SDS011;5822;51.000;5.874;2023-11-22T14:11:47;29.87;;;27.97;;
11531;SDS011;5822;51.000;5.874;2023-11-22T14:14:14;29.73;;;27.83;;
11531;SDS011;5822;51.000;5.874;2023-11-22T14:16:39;30.55;;;28.55;;
11531;SDS011;5822;51.000;5.874;2023-11-22T14:19:09;29.38;;;27.52;;
11531;SDS011;5822;51.000;5.874;2023-11-22T14:21:35;28.98;;;27.17;;
11531;SDS011;5822;51.000;5.874;2023-11-22T14:24:01;28.45;;;26.65;;
11531;SDS011;5822;51.000;5.874;2023-11-22T14:26:26;28.63;;;26.83;;
11531;SDS011;5822;51.000;5.874;2023-11-22T14:28:52;28.30;;;26.50;;
11531;SDS011;5822;51.000;5.874;2023-11-22T14:31:18;28.97;;;27.07;;
11531;SDS011;5822;51.000;5.874;2023-11-22T14:33:43;26.70;;;25.00;;
11531;SDS011;5822;51.000;5.874;2023-11-22T14:36:09;29.00;;;27.20;;
11531;SDS011;5822;51.000;5.874;2023-11-22T14:38:35;29.13;;;27.33;;